Time;durP1;ratioP1;P1;durP2;ratioP2;P2;SDS_P1;SDS_P2;PMS_P1;PMS_P2;Temp;Humidity;BMP_temperature;BMP_pressure;BME280_temperature;BME280_humidity;BME280_pressure;Samples;Min_cycle;Max_cycle;Signal;HPM_P1;HPM_P2
2021/12/28 00:01:25;;;;;;;17.38;5.28;;;;;;;10.21;100.00;97765.00;5126517;27;20194;-75
2021/12/28 00:03:52;;;;;;;15.90;5.43;;;;;;;10.28;100.00;97753.72;5129180;27;20624;-75
2021/12/28 00:06:20;;;;;;;11.40;4.30;;;;;;;10.26;100.00;97739.56;5115366;28;20227;-74
2021/12/28 00:08:48;;;;;;;14.68;4.15;;;;;;;10.14;100.00;97726.19;5123287;27;20235;-74
2021/12/28 00:11:16;;;;;;;14.35;4.80;;;;;;;10.09;100.00;97723.03;5135941;27;20207;-74
2021/12/28 00:13:44;;;;;;;15.35;5.47;;;;;;;10.13;100.00;97720.94;5128189;27;20204;-74
2021/12/28 00:16:30;;;;;;;20.25;5.80;;;;;;;10.09;100.00;97703.38;5123129;27;20541;-75
2021/12/28 00:18:58;;;;;;;19.63;4.88;;;;;;;10.06;100.00;97698.25;5116810;27;20238;-74
2021/12/28 00:21:25;;;;;;;12.65;4.63;;;;;;;9.88;100.00;97703.34;5120377;27;20593;-74
2021/12/28 00:23:52;;;;;;;12.93;4.55;;;;;;;9.94;100.00;97692.09;5134167;27;20286;-74
2021/12/28 00:26:22;;;;;;;17.88;4.50;;;;;;;9.78;100.00;97685.34;5116848;27;20191;-74
2021/12/28 00:28:50;;;;;;;19.15;5.50;;;;;;;9.79;100.00;97687.06;5129020;27;20279;-75
2021/12/28 00:31:17;;;;;;;16.08;4.25;;;;;;;9.85;100.00;97690.19;5135267;27;20226;-74
2021/12/28 00:33:45;;;;;;;10.88;4.78;;;;;;;9.88;100.00;97689.91;5126836;27;20218;-75
2021/12/28 00:36:12;;;;;;;13.15;4.68;;;;;;;9.80;100.00;97688.75;5135255;27;20211;-75
2021/12/28 00:38:39;;;;;;;16.83;4.30;;;;;;;9.84;100.00;97685.81;5126394;27;20291;-73
2021/12/28 00:41:06;;;;;;;19.70;4.88;;;;;;;9.77;100.00;97675.59;5114627;28;20235;-73
2021/12/28 00:43:35;;;;;;;13.88;4.50;;;;;;;9.85;100.00;97677.59;5130490;27;20267;-72
2021/12/28 00:46:02;;;;;;;14.95;3.92;;;;;;;9.78;100.00;97665.69;5125721;27;20200;-73
2021/12/28 00:48:29;;;;;;;13.95;4.07;;;;;;;9.81;100.00;97676.16;5134378;27;20184;-74
2021/12/28 00:50:56;;;;;;;12.25;4.47;;;;;;;9.92;100.00;97665.34;5114832;28;20661;-75
2021/12/28 00:53:23;;;;;;;12.80;3.97;;;;;;;9.91;100.00;97676.25;5117150;27;20657;-74
2021/12/28 00:55:50;;;;;;;13.15;4.18;;;;;;;9.85;100.00;97674.91;5132828;27;20191;-73
2021/12/28 00:58:18;;;;;;;11.00;3.67;;;;;;;9.86;100.00;97660.50;5134761;27;20203;-73
2021/12/28 01:00:46;;;;;;;12.15;3.85;;;;;;;9.98;100.00;97637.94;5119967;27;20196;-74
2021/12/28 01:03:14;;;;;;;14.35;3.90;;;;;;;9.93;100.00;97653.63;5113979;28;20195;-74
2021/12/28 01:05:42;;;;;;;26.75;4.68;;;;;;;10.00;100.00;97654.78;5114290;28;20637;-75
2021/12/28 01:08:10;;;;;;;10.23;4.68;;;;;;;9.98;100.00;97650.53;5116321;27;20552;-74
2021/12/28 01:10:42;;;;;;;10.90;3.67;;;;;;;10.00;100.00;97651.25;5134571;27;20207;-74
2021/12/28 01:13:09;;;;;;;10.88;4.25;;;;;;;9.95;100.00;97645.41;5134670;27;20613;-75
2021/12/28 01:15:37;;;;;;;16.83;4.30;;;;;;;9.99;100.00;97636.97;5127826;27;20190;-75
2021/12/28 01:18:05;;;;;;;11.50;3.45;;;;;;;10.06;100.00;97637.25;5123638;27;20269;-74
2021/12/28 01:20:32;;;;;;;10.30;3.97;;;;;;;10.03;100.00;97634.84;5134751;27;20196;-74
2021/12/28 01:22:59;;;;;;;10.98;3.97;;;;;;;10.15;100.00;97625.72;5132971;27;20207;-74
2021/12/28 01:25:26;;;;;;;6.75;2.55;;;;;;;10.09;100.00;97628.09;5131010;27;20191;-74
2021/12/28 01:27:53;;;;;;;8.45;3.00;;;;;;;10.21;100.00;97630.53;5123294;27;20198;-75
2021/12/28 01:30:22;;;;;;;12.50;3.42;;;;;;;10.24;100.00;97621.34;5129399;27;20225;-74
2021/12/28 01:32:49;;;;;;;8.35;3.20;;;;;;;10.13;100.00;97640.25;5123015;27;20299;-74
2021/12/28 01:35:18;;;;;;;8.32;3.30;;;;;;;10.33;100.00;97623.25;5118189;27;20196;-74
2021/12/28 01:37:46;;;;;;;11.73;2.72;;;;;;;10.27;100.00;97628.31;5113922;28;20199;-74
2021/12/28 01:40:16;;;;;;;6.88;3.08;;;;;;;10.33;100.00;97615.19;5133351;27;20222;-74
2021/12/28 01:43:01;;;;;;;10.18;3.45;;;;;;;10.31;100.00;97614.50;5134287;27;20628;-75
2021/12/28 01:45:35;;;;;;;6.82;3.13;;;;;;;10.16;100.00;97619.34;5113933;28;20196;-74
2021/12/28 01:48:05;;;;;;;7.68;3.15;;;;;;;10.34;100.00;97613.38;5119820;27;20186;-75
2021/12/28 01:50:33;;;;;;;9.75;3.90;;;;;;;10.35;100.00;97599.75;5113444;28;20227;-73
2021/12/28 01:53:01;;;;;;;10.00;3.33;;;;;;;10.42;100.00;97605.44;5114880;27;20291;-73
2021/12/28 01:55:28;;;;;;;8.50;2.80;;;;;;;10.40;100.00;97600.22;5133883;27;20199;-72
2021/12/28 01:57:54;;;;;;;7.53;3.13;;;;;;;10.38;100.00;97596.81;5132598;27;20285;-73
2021/12/28 02:00:22;;;;;;;11.90;2.92;;;;;;;10.31;100.00;97600.16;5113882;28;20191;-73
2021/12/28 02:02:49;;;;;;;7.72;2.95;;;;;;;10.38;100.00;97591.44;5133680;28;20538;-73
2021/12/28 02:05:16;;;;;;;8.63;2.80;;;;;;;10.44;100.00;97590.00;5133778;28;20183;-73
2021/12/28 02:07:44;;;;;;;5.88;2.50;;;;;;;10.42;100.00;97586.59;5134165;28;20309;-73
2021/12/28 02:10:11;;;;;;;10.18;3.47;;;;;;;10.34;100.00;97591.84;5133061;28;20195;-73
2021/12/28 02:12:37;;;;;;;10.48;3.60;;;;;;;10.38;100.00;97587.91;5134119;28;20202;-75
2021/12/28 02:15:08;;;;;;;11.57;3.08;;;;;;;10.49;100.00;97587.78;5127622;27;20288;-73
2021/12/28 02:17:36;;;;;;;9.13;2.85;;;;;;;10.53;100.00;97591.03;5119805;28;20198;-73
2021/12/28 02:20:07;;;;;;;8.32;3.25;;;;;;;10.46;100.00;97588.03;5127502;27;20556;-73
2021/12/28 02:22:34;;;;;;;6.40;3.05;;;;;;;10.37;100.00;97581.66;5129054;27;20190;-73
2021/12/28 02:25:01;;;;;;;8.60;3.03;;;;;;;10.38;100.00;97577.97;5122337;27;20199;-73
2021/12/28 02:27:29;;;;;;;7.38;3.08;;;;;;;10.28;100.00;97568.97;5116917;28;20279;-73
2021/12/28 02:29:56;;;;;;;6.15;3.20;;;;;;;10.16;100.00;97565.56;5119225;27;20188;-72
2021/12/28 02:32:26;;;;;;;7.03;3.40;;;;;;;10.16;100.00;97552.13;5132073;27;20210;-73
2021/12/28 02:34:53;;;;;;;11.25;3.00;;;;;;;10.11;100.00;97548.16;5122389;27;20184;-73
2021/12/28 02:37:21;;;;;;;5.03;2.95;;;;;;;10.06;100.00;97547.69;5117325;28;20286;-73
2021/12/28 02:39:48;;;;;;;9.95;3.00;;;;;;;10.02;100.00;97539.06;5131238;27;20294;-73
2021/12/28 02:42:17;;;;;;;7.07;2.70;;;;;;;9.96;100.00;97534.22;5124729;27;20188;-73
2021/12/28 02:44:44;;;;;;;7.47;2.85;;;;;;;9.92;100.00;97538.16;5119963;27;20195;-74
2021/12/28 02:47:11;;;;;;;5.13;2.72;;;;;;;9.93;100.00;97529.13;5130577;27;20279;-73
2021/12/28 02:49:37;;;;;;;8.63;3.28;;;;;;;9.97;100.00;97531.41;5132322;27;20195;-74
2021/12/28 02:52:09;;;;;;;6.70;2.70;;;;;;;9.97;100.00;97525.16;5128456;27;20204;-74
2021/12/28 02:54:38;;;;;;;6.65;2.92;;;;;;;9.89;100.00;97515.09;5116986;28;20655;-73
2021/12/28 02:57:05;;;;;;;4.63;2.92;;;;;;;9.90;100.00;97507.88;5122524;27;20190;-73
2021/12/28 02:59:32;;;;;;;8.70;2.70;;;;;;;9.94;100.00;97502.09;5132424;27;20196;-73
2021/12/28 03:01:59;;;;;;;7.38;2.92;;;;;;;9.91;100.00;97507.75;5116969;27;20194;-73
2021/12/28 03:04:27;;;;;;;7.72;3.05;;;;;;;10.08;100.00;97498.16;5117109;27;20657;-73
2021/12/28 03:06:54;;;;;;;10.55;3.38;;;;;;;10.08;100.00;97500.84;5120919;27;20270;-74
2021/12/28 03:09:22;;;;;;;6.90;2.85;;;;;;;10.04;100.00;97486.00;5133582;27;20242;-73
2021/12/28 03:11:50;;;;;;;9.05;3.40;;;;;;;10.12;100.00;97493.38;5116125;28;20288;-73
2021/12/28 03:14:17;;;;;;;5.78;3.20;;;;;;;10.01;100.00;97486.25;5128861;27;20298;-73
2021/12/28 03:16:44;;;;;;;8.80;3.17;;;;;;;10.13;100.00;97490.56;5132422;27;20226;-73
2021/12/28 03:19:10;;;;;;;11.73;3.30;;;;;;;10.08;100.00;97482.03;5119502;27;22123;-72
2021/12/28 03:21:38;;;;;;;8.68;3.53;;;;;;;10.08;100.00;97486.56;5116499;28;20267;-74
2021/12/28 03:24:06;;;;;;;8.95;2.90;;;;;;;10.17;100.00;97480.34;5121922;27;20192;-73
2021/12/28 03:26:33;;;;;;;4.50;2.28;;;;;;;10.04;100.00;97483.31;5130591;27;20222;-73
2021/12/28 03:29:01;;;;;;;7.75;2.35;;;;;;;9.87;100.00;97486.66;5131536;27;20219;-73
2021/12/28 03:31:28;;;;;;;9.10;2.40;;;;;;;9.98;100.00;97470.41;5135148;27;20221;-74
2021/12/28 03:33:56;;;;;;;7.90;2.80;;;;;;;9.90;100.00;97463.00;5134022;27;20209;-73
2021/12/28 03:36:25;;;;;;;9.85;2.83;;;;;;;10.08;100.00;97462.38;5116134;27;20223;-73
2021/12/28 03:38:52;;;;;;;7.88;2.20;;;;;;;10.07;100.00;97461.53;5135745;27;20191;-74
2021/12/28 03:41:20;;;;;;;4.68;1.58;;;;;;;10.16;100.00;97466.06;5136686;27;20190;-73
2021/12/28 03:43:49;;;;;;;6.65;1.80;;;;;;;10.19;100.00;97452.31;5127861;27;20203;-74
2021/12/28 03:46:18;;;;;;;4.45;1.70;;;;;;;10.06;100.00;97448.19;5115625;28;20198;-73
2021/12/28 03:48:45;;;;;;;3.50;2.00;;;;;;;10.10;100.00;97442.41;5130722;27;20554;-73
2021/12/28 03:51:12;;;;;;;4.25;2.33;;;;;;;10.20;100.00;97445.97;5115503;27;20310;-74
2021/12/28 03:53:39;;;;;;;2.45;1.80;;;;;;;10.15;100.00;97434.78;5136453;27;20188;-73
2021/12/28 03:56:08;;;;;;;2.58;1.42;;;;;;;10.11;100.00;97435.22;5117898;27;20228;-73
2021/12/28 03:58:35;;;;;;;5.10;1.42;;;;;;;10.05;100.00;97425.84;5126134;27;20196;-74
2021/12/28 04:01:03;;;;;;;3.47;1.52;;;;;;;10.12;100.00;97428.84;5131183;27;20628;-74
2021/12/28 04:03:32;;;;;;;3.85;1.40;;;;;;;10.07;100.00;97423.88;5135892;27;20286;-74
2021/12/28 04:05:59;;;;;;;1.80;1.27;;;;;;;10.09;100.00;97419.22;5125073;27;20199;-74
2021/12/28 04:08:28;;;;;;;2.47;1.50;;;;;;;10.02;100.00;97413.53;5131250;27;20230;-74
2021/12/28 04:11:02;;;;;;;2.50;1.00;;;;;;;9.97;100.00;97417.63;5133210;27;20207;-74
2021/12/28 04:13:29;;;;;;;4.95;1.27;;;;;;;10.06;100.00;97413.25;5135241;27;20199;-73
2021/12/28 04:15:56;;;;;;;2.38;1.15;;;;;;;10.06;100.00;97422.16;5135889;27;20200;-73
2021/12/28 04:18:22;;;;;;;3.67;1.20;;;;;;;9.98;100.00;97430.94;5135309;27;20196;-73
2021/12/28 04:20:50;;;;;;;2.25;1.40;;;;;;;10.07;100.00;97415.81;5135931;27;20615;-73
2021/12/28 04:23:17;;;;;;;1.52;1.10;;;;;;;10.00;100.00;97415.50;5126504;27;20195;-73
2021/12/28 04:25:44;;;;;;;1.52;0.90;;;;;;;10.04;100.00;97410.72;5115166;28;20212;-73
2021/12/28 04:28:11;;;;;;;1.85;1.00;;;;;;;9.98;100.00;97403.22;5126842;27;20673;-74
2021/12/28 04:30:38;;;;;;;2.05;1.00;;;;;;;9.92;100.00;97404.59;5134592;27;20198;-73
2021/12/28 04:33:04;;;;;;;1.33;0.90;;;;;;;9.98;100.00;97387.91;5134993;27;20199;-73
2021/12/28 04:35:31;;;;;;;1.95;1.25;;;;;;;9.88;100.00;97387.06;5134905;27;20195;-73
2021/12/28 04:37:59;;;;;;;1.92;0.93;;;;;;;10.02;100.00;97367.00;5135044;27;20193;-73
2021/12/28 04:40:26;;;;;;;1.92;1.02;;;;;;;9.99;100.00;97356.50;5122863;27;20192;-74
2021/12/28 04:42:53;;;;;;;3.67;1.88;;;;;;;9.89;100.00;97353.81;5113535;28;20552;-73
2021/12/28 04:45:19;;;;;;;2.55;1.40;;;;;;;10.06;100.00;97346.88;5114395;28;20610;-74
2021/12/28 04:47:46;;;;;;;1.70;1.13;;;;;;;9.99;100.00;97351.13;5114371;28;20531;-74
2021/12/28 04:50:14;;;;;;;4.40;1.98;;;;;;;9.85;100.00;97330.06;5114185;28;20497;-74
2021/12/28 04:52:42;;;;;;;2.50;1.40;;;;;;;9.77;100.00;97326.22;5113861;28;20220;-74
2021/12/28 04:55:13;;;;;;;5.70;1.38;;;;;;;9.87;100.00;97330.75;5133076;27;20208;-74
2021/12/28 04:57:41;;;;;;;1.63;1.13;;;;;;;10.01;100.00;97333.03;5134216;27;20215;-74
2021/12/28 05:00:11;;;;;;;3.72;1.10;;;;;;;9.80;100.00;97327.78;5134620;27;20230;-74
2021/12/28 05:02:38;;;;;;;2.30;1.30;;;;;;;9.75;100.00;97333.56;5119371;27;20275;-74
2021/12/28 05:05:05;;;;;;;2.08;1.17;;;;;;;9.75;100.00;97338.09;5131261;27;20282;-73
2021/12/28 05:07:32;;;;;;;2.75;1.27;;;;;;;9.66;100.00;97331.72;5134275;27;20247;-74
2021/12/28 05:09:59;;;;;;;3.05;1.10;;;;;;;9.65;100.00;97338.06;5134409;27;20262;-73
2021/12/28 05:12:28;;;;;;;1.50;1.00;;;;;;;9.59;100.00;97333.28;5134256;27;20310;-73
2021/12/28 05:14:58;;;;;;;2.15;1.40;;;;;;;9.65;100.00;97338.06;5118325;27;20206;-74
2021/12/28 05:17:25;;;;;;;1.85;0.85;;;;;;;9.65;100.00;97342.59;5116873;27;20539;-73
2021/12/28 05:19:52;;;;;;;2.17;1.05;;;;;;;9.64;100.00;97340.91;5126256;27;20200;-73
2021/12/28 05:22:19;;;;;;;1.30;1.00;;;;;;;9.59;100.00;97334.13;5113872;28;20613;-74
2021/12/28 05:24:45;;;;;;;1.48;1.17;;;;;;;9.69;100.00;97330.59;5128436;27;20639;-74
2021/12/28 05:27:12;;;;;;;2.10;0.90;;;;;;;9.69;100.00;97333.28;5134585;27;20188;-74
2021/12/28 05:29:40;;;;;;;1.73;1.02;;;;;;;9.60;100.00;97329.59;5134528;27;20652;-74
2021/12/28 05:32:08;;;;;;;4.40;1.20;;;;;;;9.65;100.00;97321.94;5134211;27;20556;-74
2021/12/28 05:34:34;;;;;;;2.28;1.00;;;;;;;9.75;100.00;97322.81;5134255;27;20222;-73
2021/12/28 05:37:01;;;;;;;2.40;1.10;;;;;;;9.82;100.00;97321.28;5118714;27;20291;-74
2021/12/28 05:39:28;;;;;;;1.60;0.85;;;;;;;9.78;100.00;97329.75;5113858;28;20184;-74
2021/12/28 05:41:54;;;;;;;3.10;1.25;;;;;;;9.82;100.00;97323.13;5113559;28;20188;-75
2021/12/28 05:44:21;;;;;;;1.50;1.10;;;;;;;9.86;100.00;97324.53;5123644;27;20282;-74
2021/12/28 05:46:49;;;;;;;1.45;0.98;;;;;;;9.89;100.00;97308.13;5132307;27;20285;-75
